Meteo Giornale » Osservazioni meteo Stati Uniti (USA) » Rock Hill - York

ore: 17:54 - Osservazioni Meteo Rock Hill - York
Lat. 34° 59' N Lon. 81° 3' W Alt. 204 metri s.l.m.

sereno

34 °C

Sereno

Temp. 24 Ore

21 °C

35 °C

Nord

9.3 Km/h

Dew point 21 °C

Umidità 46 %

Visibilità  10 Km

Il sole sorge alle ore 06:57

Il sole tramonta alle ore 19:51

Data e Ora Cielo e Fenomeni T °C DP °C Um. % Pres. hPa Vis. km Vento km/h
Oggi h: 17:54 sereno Sereno 34 21 46 1017 10 N 9.3
Oggi h: 16:54 sereno Sereno 35 20 41 1017 10 N 0
Oggi h: 15:54 sereno Sereno 34 19 41 1018 10 N 7.4
Oggi h: 14:54 sereno Sereno 34 20 43 1019 10 NE 13
Oggi h: 13:54 poco_nuvoloso Poco Nuvoloso 33 20 46 1019 10 N 0
Oggi h: 12:54 sereno Sereno 33 21 49 1019 10 N 0
Oggi h: 11:54 sereno Sereno 32 21 52 1020 10 O 9.3
Oggi h: 10:54 sereno Sereno 31 22 58 1020 10 N 9.3
Oggi h: 09:54 sereno Sereno 29 23 70 1020 10 N 5.5
Oggi h: 08:54 sereno Sereno 26 23 83 1020 10 N 0
Oggi h: 07:54 sereno Sereno 22 21 94 1020 10 N 0
Oggi h: 06:54 sereno Sereno 21 20 94 1019 10 N 0
Oggi h: 05:54 sereno Sereno 21 21 100 1019 10 N 0
Oggi h: 04:54 sereno Sereno 22 21 94 1019 10 N 0
Oggi h: 03:54 sereno Sereno 22 21 94 1019 10 N 0
Oggi h: 02:54 sereno Sereno 24 21 83 1019 10 N 0
Oggi h: 01:54 sereno Sereno 23 21 88 1020 10 N 0
Oggi h: 00:54 sereno Sereno 23 21 88 1020 10 N 5.5
Ieri h: 23:54 sereno Sereno 24 21 83 1020 10 N 0
Ieri h: 22:54 sereno Sereno 24 22 88 1020 10 N 0
Ieri h: 21:54 sereno Sereno 25 22 83 1019 10 N 5.5
Ieri h: 20:54 sereno Sereno 26 22 78 1019 10 N 5.5
Ieri h: 19:54 sereno Sereno 29 22 66 1018 10 N 0
Ieri h: 18:54 sereno Sereno 31 21 55 1018 10 N 7.4